sensor_id;sensor_type;location;lat;lon;timestamp;P1;durP1;ratioP1;P2;durP2;ratioP2
67049;SDS011;53955;52.442;13.284;2023-05-17T00:00:11;5.73;;;1.60;;
67049;SDS011;53955;52.442;13.284;2023-05-17T00:02:38;9.03;;;2.00;;
67049;SDS011;53955;52.442;13.284;2023-05-17T00:05:05;6.00;;;1.80;;
67049;SDS011;53955;52.442;13.284;2023-05-17T00:07:32;4.13;;;1.67;;
67049;SDS011;53955;52.442;13.284;2023-05-17T00:09:59;6.00;;;2.20;;
67049;SDS011;53955;52.442;13.284;2023-05-17T00:12:25;5.00;;;1.80;;
67049;SDS011;53955;52.442;13.284;2023-05-17T00:14:53;5.40;;;1.73;;
67049;SDS011;53955;52.442;13.284;2023-05-17T00:17:19;4.70;;;2.00;;
67049;SDS011;53955;52.442;13.284;2023-05-17T00:19:46;5.60;;;2.28;;
67049;SDS011;53955;52.442;13.284;2023-05-17T00:22:12;6.18;;;2.00;;
67049;SDS011;53955;52.442;13.284;2023-05-17T00:24:39;5.57;;;1.67;;
67049;SDS011;53955;52.442;13.284;2023-05-17T00:27:06;8.13;;;2.10;;
67049;SDS011;53955;52.442;13.284;2023-05-17T00:29:32;7.57;;;2.50;;
67049;SDS011;53955;52.442;13.284;2023-05-17T00:32:00;6.90;;;1.98;;
67049;SDS011;53955;52.442;13.284;2023-05-17T00:34:26;8.05;;;2.05;;
67049;SDS011;53955;52.442;13.284;2023-05-17T00:36:53;4.32;;;1.80;;
67049;SDS011;53955;52.442;13.284;2023-05-17T00:39:19;4.25;;;1.90;;
67049;SDS011;53955;52.442;13.284;2023-05-17T00:41:46;5.82;;;2.35;;
67049;SDS011;53955;52.442;13.284;2023-05-17T00:44:12;10.48;;;2.67;;
67049;SDS011;53955;52.442;13.284;2023-05-17T00:46:39;6.40;;;2.30;;
67049;SDS011;53955;52.442;13.284;2023-05-17T00:49:07;5.13;;;2.17;;
67049;SDS011;53955;52.442;13.284;2023-05-17T00:51:33;6.53;;;2.70;;
67049;SDS011;53955;52.442;13.284;2023-05-17T00:54:00;4.68;;;2.20;;
67049;SDS011;53955;52.442;13.284;2023-05-17T00:56:29;9.73;;;3.00;;
67049;SDS011;53955;52.442;13.284;2023-05-17T00:58:56;8.80;;;2.10;;
67049;SDS011;53955;52.442;13.284;2023-05-17T01:01:24;9.93;;;2.60;;
67049;SDS011;53955;52.442;13.284;2023-05-17T01:03:51;8.25;;;2.60;;
67049;SDS011;53955;52.442;13.284;2023-05-17T01:06:19;8.77;;;2.63;;
67049;SDS011;53955;52.442;13.284;2023-05-17T01:08:46;7.43;;;2.92;;
67049;SDS011;53955;52.442;13.284;2023-05-17T01:11:13;10.75;;;2.75;;
67049;SDS011;53955;52.442;13.284;2023-05-17T01:13:51;8.70;;;2.78;;
67049;SDS011;53955;52.442;13.284;2023-05-17T01:16:21;7.30;;;2.25;;
67049;SDS011;53955;52.442;13.284;2023-05-17T01:18:55;6.22;;;2.63;;
67049;SDS011;53955;52.442;13.284;2023-05-17T01:21:34;5.57;;;2.63;;
67049;SDS011;53955;52.442;13.284;2023-05-17T01:24:15;6.33;;;2.53;;
67049;SDS011;53955;52.442;13.284;2023-05-17T01:26:53;10.13;;;2.58;;
67049;SDS011;53955;52.442;13.284;2023-05-17T01:29:22;8.07;;;2.60;;
67049;SDS011;53955;52.442;13.284;2023-05-17T01:31:50;7.13;;;2.45;;
67049;SDS011;53955;52.442;13.284;2023-05-17T01:34:23;7.30;;;2.63;;
67049;SDS011;53955;52.442;13.284;2023-05-17T01:36:50;10.73;;;2.87;;
67049;SDS011;53955;52.442;13.284;2023-05-17T01:39:17;10.57;;;2.80;;
67049;SDS011;53955;52.442;13.284;2023-05-17T01:41:45;5.53;;;2.58;;
67049;SDS011;53955;52.442;13.284;2023-05-17T01:44:22;12.73;;;3.08;;
67049;SDS011;53955;52.442;13.284;2023-05-17T01:46:57;8.25;;;2.40;;
67049;SDS011;53955;52.442;13.284;2023-05-17T01:49:28;7.20;;;3.00;;
67049;SDS011;53955;52.442;13.284;2023-05-17T01:51:56;8.97;;;3.03;;
67049;SDS011;53955;52.442;13.284;2023-05-17T01:54:30;6.57;;;2.67;;
67049;SDS011;53955;52.442;13.284;2023-05-17T01:57:03;7.03;;;3.05;;
67049;SDS011;53955;52.442;13.284;2023-05-17T01:59:32;10.00;;;2.73;;
67049;SDS011;53955;52.442;13.284;2023-05-17T02:02:03;9.60;;;2.90;;
67049;SDS011;53955;52.442;13.284;2023-05-17T02:04:32;7.23;;;2.90;;
67049;SDS011;53955;52.442;13.284;2023-05-17T02:06:59;8.13;;;2.63;;
67049;SDS011;53955;52.442;13.284;2023-05-17T02:09:26;14.10;;;3.43;;
67049;SDS011;53955;52.442;13.284;2023-05-17T02:11:52;9.57;;;3.00;;
67049;SDS011;53955;52.442;13.284;2023-05-17T02:14:19;8.60;;;2.40;;
67049;SDS011;53955;52.442;13.284;2023-05-17T02:16:47;9.10;;;2.47;;
67049;SDS011;53955;52.442;13.284;2023-05-17T02:19:14;10.70;;;2.73;;
67049;SDS011;53955;52.442;13.284;2023-05-17T02:21:40;8.83;;;3.13;;
67049;SDS011;53955;52.442;13.284;2023-05-17T02:24:07;6.47;;;2.80;;
67049;SDS011;53955;52.442;13.284;2023-05-17T02:26:33;7.75;;;2.83;;
67049;SDS011;53955;52.442;13.284;2023-05-17T02:29:00;7.37;;;2.80;;
67049;SDS011;53955;52.442;13.284;2023-05-17T02:31:26;8.10;;;3.00;;
67049;SDS011;53955;52.442;13.284;2023-05-17T02:33:55;7.07;;;2.77;;
67049;SDS011;53955;52.442;13.284;2023-05-17T02:36:21;6.90;;;3.20;;
67049;SDS011;53955;52.442;13.284;2023-05-17T02:38:48;8.52;;;2.90;;
67049;SDS011;53955;52.442;13.284;2023-05-17T02:41:14;7.07;;;3.13;;
67049;SDS011;53955;52.442;13.284;2023-05-17T02:43:41;9.40;;;3.07;;
67049;SDS011;53955;52.442;13.284;2023-05-17T02:46:07;12.67;;;3.03;;
67049;SDS011;53955;52.442;13.284;2023-05-17T02:48:34;9.97;;;3.07;;
67049;SDS011;53955;52.442;13.284;2023-05-17T02:51:02;5.73;;;2.70;;
67049;SDS011;53955;52.442;13.284;2023-05-17T02:53:29;8.73;;;3.23;;
67049;SDS011;53955;52.442;13.284;2023-05-17T02:55:55;6.57;;;3.50;;
67049;SDS011;53955;52.442;13.284;2023-05-17T02:58:22;9.63;;;3.15;;
67049;SDS011;53955;52.442;13.284;2023-05-17T03:00:49;11.05;;;3.10;;
67049;SDS011;53955;52.442;13.284;2023-05-17T03:03:16;11.60;;;3.20;;
67049;SDS011;53955;52.442;13.284;2023-05-17T03:05:42;7.30;;;3.23;;
67049;SDS011;53955;52.442;13.284;2023-05-17T03:08:10;9.47;;;3.50;;
67049;SDS011;53955;52.442;13.284;2023-05-17T03:10:37;10.10;;;2.87;;
67049;SDS011;53955;52.442;13.284;2023-05-17T03:13:03;13.37;;;3.20;;
67049;SDS011;53955;52.442;13.284;2023-05-17T03:15:30;4.83;;;2.97;;
67049;SDS011;53955;52.442;13.284;2023-05-17T03:17:56;8.97;;;3.17;;
67049;SDS011;53955;52.442;13.284;2023-05-17T03:20:23;7.60;;;3.27;;
67049;SDS011;53955;52.442;13.284;2023-05-17T03:22:49;12.20;;;3.60;;
67049;SDS011;53955;52.442;13.284;2023-05-17T03:25:18;12.33;;;3.30;;
67049;SDS011;53955;52.442;13.284;2023-05-17T03:27:44;6.80;;;3.27;;
67049;SDS011;53955;52.442;13.284;2023-05-17T03:30:11;9.87;;;3.50;;
67049;SDS011;53955;52.442;13.284;2023-05-17T03:32:38;11.10;;;3.30;;
67049;SDS011;53955;52.442;13.284;2023-05-17T03:35:05;13.13;;;3.17;;
67049;SDS011;53955;52.442;13.284;2023-05-17T03:37:32;9.07;;;3.27;;
67049;SDS011;53955;52.442;13.284;2023-05-17T03:39:58;7.27;;;3.27;;
67049;SDS011;53955;52.442;13.284;2023-05-17T03:42:26;10.47;;;2.93;;
67049;SDS011;53955;52.442;13.284;2023-05-17T03:44:53;8.23;;;2.90;;
67049;SDS011;53955;52.442;13.284;2023-05-17T03:47:19;8.80;;;3.87;;
67049;SDS011;53955;52.442;13.284;2023-05-17T03:49:47;12.53;;;3.20;;
67049;SDS011;53955;52.442;13.284;2023-05-17T03:52:14;9.57;;;3.30;;
67049;SDS011;53955;52.442;13.284;2023-05-17T03:54:40;9.00;;;3.20;;
67049;SDS011;53955;52.442;13.284;2023-05-17T03:57:07;8.87;;;3.30;;
67049;SDS011;53955;52.442;13.284;2023-05-17T03:59:35;5.93;;;3.33;;
67049;SDS011;53955;52.442;13.284;2023-05-17T04:02:01;9.53;;;3.60;;
67049;SDS011;53955;52.442;13.284;2023-05-17T04:04:28;5.13;;;2.73;;
67049;SDS011;53955;52.442;13.284;2023-05-17T04:06:54;12.23;;;3.90;;
67049;SDS011;53955;52.442;13.284;2023-05-17T04:09:21;7.20;;;3.20;;
67049;SDS011;53955;52.442;13.284;2023-05-17T04:11:48;7.95;;;3.80;;
67049;SDS011;53955;52.442;13.284;2023-05-17T04:14:14;10.95;;;3.10;;
67049;SDS011;53955;52.442;13.284;2023-05-17T04:16:44;8.43;;;3.40;;
67049;SDS011;53955;52.442;13.284;2023-05-17T04:19:10;7.37;;;3.20;;
67049;SDS011;53955;52.442;13.284;2023-05-17T04:21:37;7.87;;;3.20;;
67049;SDS011;53955;52.442;13.284;2023-05-17T04:24:03;10.53;;;3.50;;
67049;SDS011;53955;52.442;13.284;2023-05-17T04:26:30;9.07;;;3.07;;
67049;SDS011;53955;52.442;13.284;2023-05-17T04:28:57;10.23;;;3.23;;
67049;SDS011;53955;52.442;13.284;2023-05-17T04:31:23;11.02;;;3.50;;
67049;SDS011;53955;52.442;13.284;2023-05-17T04:33:51;9.60;;;3.20;;
67049;SDS011;53955;52.442;13.284;2023-05-17T04:36:18;9.43;;;3.20;;
67049;SDS011;53955;52.442;13.284;2023-05-17T04:38:45;10.25;;;3.40;;
67049;SDS011;53955;52.442;13.284;2023-05-17T04:41:11;12.73;;;3.35;;
67049;SDS011;53955;52.442;13.284;2023-05-17T04:48:32;8.40;;;3.30;;
67049;SDS011;53955;52.442;13.284;2023-05-17T04:51:01;6.63;;;3.50;;
67049;SDS011;53955;52.442;13.284;2023-05-17T04:53:29;7.43;;;3.50;;
67049;SDS011;53955;52.442;13.284;2023-05-17T04:55:56;6.57;;;2.70;;
67049;SDS011;53955;52.442;13.284;2023-05-17T04:58:22;10.32;;;3.17;;
67049;SDS011;53955;52.442;13.284;2023-05-17T05:00:49;7.55;;;2.67;;
67049;SDS011;53955;52.442;13.284;2023-05-17T05:03:16;9.63;;;3.00;;
67049;SDS011;53955;52.442;13.284;2023-05-17T05:05:43;6.25;;;2.80;;
67049;SDS011;53955;52.442;13.284;2023-05-17T05:08:10;6.78;;;2.42;;
67049;SDS011;53955;52.442;13.284;2023-05-17T05:10:37;6.65;;;2.90;;
67049;SDS011;53955;52.442;13.284;2023-05-17T05:13:03;9.43;;;2.53;;
67049;SDS011;53955;52.442;13.284;2023-05-17T05:15:30;10.95;;;2.97;;
67049;SDS011;53955;52.442;13.284;2023-05-17T05:17:57;9.15;;;3.42;;
67049;SDS011;53955;52.442;13.284;2023-05-17T05:20:23;5.95;;;2.28;;
67049;SDS011;53955;52.442;13.284;2023-05-17T05:30:11;7.07;;;2.60;;
67049;SDS011;53955;52.442;13.284;2023-05-17T05:32:45;6.75;;;2.28;;
67049;SDS011;53955;52.442;13.284;2023-05-17T05:35:12;6.40;;;2.20;;
67049;SDS011;53955;52.442;13.284;2023-05-17T05:37:39;11.15;;;2.15;;
67049;SDS011;53955;52.442;13.284;2023-05-17T05:40:06;7.18;;;2.72;;
67049;SDS011;53955;52.442;13.284;2023-05-17T05:45:02;8.13;;;2.40;;
67049;SDS011;53955;52.442;13.284;2023-05-17T05:47:28;5.40;;;2.20;;
67049;SDS011;53955;52.442;13.284;2023-05-17T05:49:55;6.35;;;2.33;;
67049;SDS011;53955;52.442;13.284;2023-05-17T05:52:22;7.88;;;2.47;;
67049;SDS011;53955;52.442;13.284;2023-05-17T05:54:48;7.32;;;2.25;;
67049;SDS011;53955;52.442;13.284;2023-05-17T05:57:15;7.05;;;2.28;;
67049;SDS011;53955;52.442;13.284;2023-05-17T05:59:42;6.53;;;2.50;;
67049;SDS011;53955;52.442;13.284;2023-05-17T06:02:09;10.00;;;2.50;;
67049;SDS011;53955;52.442;13.284;2023-05-17T06:04:35;8.77;;;2.53;;
67049;SDS011;53955;52.442;13.284;2023-05-17T06:07:02;9.02;;;2.42;;
67049;SDS011;53955;52.442;13.284;2023-05-17T06:09:29;8.13;;;1.90;;
67049;SDS011;53955;52.442;13.284;2023-05-17T06:11:56;12.63;;;2.55;;
67049;SDS011;53955;52.442;13.284;2023-05-17T06:14:22;11.50;;;2.53;;
67049;SDS011;53955;52.442;13.284;2023-05-17T06:16:50;12.15;;;2.40;;
67049;SDS011;53955;52.442;13.284;2023-05-17T06:19:17;9.27;;;2.58;;
67049;SDS011;53955;52.442;13.284;2023-05-17T06:21:44;7.88;;;2.53;;
67049;SDS011;53955;52.442;13.284;2023-05-17T06:24:10;7.15;;;1.92;;
67049;SDS011;53955;52.442;13.284;2023-05-17T06:26:37;7.43;;;2.47;;
67049;SDS011;53955;52.442;13.284;2023-05-17T06:29:04;8.45;;;2.65;;
67049;SDS011;53955;52.442;13.284;2023-05-17T06:31:31;7.40;;;2.20;;
67049;SDS011;53955;52.442;13.284;2023-05-17T06:33:59;6.88;;;2.20;;
67049;SDS011;53955;52.442;13.284;2023-05-17T06:36:25;11.63;;;2.42;;
67049;SDS011;53955;52.442;13.284;2023-05-17T06:38:52;7.00;;;2.08;;
67049;SDS011;53955;52.442;13.284;2023-05-17T06:41:19;12.43;;;1.95;;
67049;SDS011;53955;52.442;13.284;2023-05-17T06:43:45;11.77;;;2.47;;
67049;SDS011;53955;52.442;13.284;2023-05-17T06:46:12;7.18;;;2.38;;
67049;SDS011;53955;52.442;13.284;2023-05-17T06:48:38;9.73;;;2.63;;
67049;SDS011;53955;52.442;13.284;2023-05-17T06:51:06;8.03;;;2.37;;
67049;SDS011;53955;52.442;13.284;2023-05-17T06:53:32;5.50;;;2.00;;
67049;SDS011;53955;52.442;13.284;2023-05-17T06:55:59;6.28;;;2.03;;
67049;SDS011;53955;52.442;13.284;2023-05-17T06:58:26;6.20;;;2.13;;
67049;SDS011;53955;52.442;13.284;2023-05-17T07:00:52;8.23;;;2.15;;
67049;SDS011;53955;52.442;13.284;2023-05-17T07:03:19;5.07;;;2.20;;
67049;SDS011;53955;52.442;13.284;2023-05-17T07:05:45;12.05;;;2.70;;
67049;SDS011;53955;52.442;13.284;2023-05-17T07:08:13;7.88;;;2.35;;
67049;SDS011;53955;52.442;13.284;2023-05-17T07:10:40;4.95;;;2.10;;
67049;SDS011;53955;52.442;13.284;2023-05-17T07:13:06;6.95;;;2.03;;
67049;SDS011;53955;52.442;13.284;2023-05-17T07:15:33;10.73;;;2.50;;
67049;SDS011;53955;52.442;13.284;2023-05-17T07:17:59;6.15;;;2.08;;
67049;SDS011;53955;52.442;13.284;2023-05-17T07:20:26;10.48;;;2.45;;
67049;SDS011;53955;52.442;13.284;2023-05-17T07:22:53;4.60;;;2.25;;
67049;SDS011;53955;52.442;13.284;2023-05-17T07:25:21;8.38;;;2.10;;
67049;SDS011;53955;52.442;13.284;2023-05-17T07:27:48;10.68;;;1.98;;
67049;SDS011;53955;52.442;13.284;2023-05-17T07:30:14;6.97;;;1.67;;
67049;SDS011;53955;52.442;13.284;2023-05-17T07:32:41;6.40;;;2.67;;
67049;SDS011;53955;52.442;13.284;2023-05-17T07:35:08;16.33;;;2.30;;
67049;SDS011;53955;52.442;13.284;2023-05-17T07:37:34;5.15;;;1.92;;
67049;SDS011;53955;52.442;13.284;2023-05-17T07:40:01;10.98;;;1.75;;
67049;SDS011;53955;52.442;13.284;2023-05-17T07:42:31;7.47;;;1.75;;
67049;SDS011;53955;52.442;13.284;2023-05-17T07:44:57;4.20;;;1.63;;
67049;SDS011;53955;52.442;13.284;2023-05-17T07:47:24;8.20;;;2.08;;
67049;SDS011;53955;52.442;13.284;2023-05-17T07:49:50;13.48;;;2.33;;
67049;SDS011;53955;52.442;13.284;2023-05-17T07:52:17;7.07;;;2.00;;
67049;SDS011;53955;52.442;13.284;2023-05-17T07:54:44;8.45;;;2.00;;
67049;SDS011;53955;52.442;13.284;2023-05-17T07:57:10;9.70;;;1.60;;
67049;SDS011;53955;52.442;13.284;2023-05-17T07:59:38;9.55;;;1.98;;
67049;SDS011;53955;52.442;13.284;2023-05-17T08:02:05;5.85;;;1.70;;
67049;SDS011;53955;52.442;13.284;2023-05-17T08:04:31;9.20;;;2.40;;
67049;SDS011;53955;52.442;13.284;2023-05-17T08:06:58;14.05;;;2.20;;
67049;SDS011;53955;52.442;13.284;2023-05-17T08:09:25;8.85;;;1.98;;
67049;SDS011;53955;52.442;13.284;2023-05-17T08:11:52;6.57;;;1.75;;
67049;SDS011;53955;52.442;13.284;2023-05-17T08:14:20;6.18;;;1.95;;
67049;SDS011;53955;52.442;13.284;2023-05-17T08:16:49;7.55;;;2.22;;
67049;SDS011;53955;52.442;13.284;2023-05-17T08:19:16;5.07;;;1.73;;
67049;SDS011;53955;52.442;13.284;2023-05-17T08:21:43;13.32;;;2.40;;
67049;SDS011;53955;52.442;13.284;2023-05-17T08:24:10;7.32;;;1.83;;
67049;SDS011;53955;52.442;13.284;2023-05-17T08:26:37;7.50;;;1.67;;
67049;SDS011;53955;52.442;13.284;2023-05-17T08:29:04;7.60;;;1.92;;
67049;SDS011;53955;52.442;13.284;2023-05-17T08:31:30;7.72;;;2.05;;
67049;SDS011;53955;52.442;13.284;2023-05-17T08:33:58;9.48;;;2.55;;
67049;SDS011;53955;52.442;13.284;2023-05-17T08:36:25;9.93;;;1.70;;
67049;SDS011;53955;52.442;13.284;2023-05-17T08:38:52;7.72;;;2.20;;
67049;SDS011;53955;52.442;13.284;2023-05-17T08:41:19;5.90;;;1.98;;
67049;SDS011;53955;52.442;13.284;2023-05-17T08:43:45;4.57;;;1.77;;
67049;SDS011;53955;52.442;13.284;2023-05-17T08:46:13;9.05;;;1.98;;
67049;SDS011;53955;52.442;13.284;2023-05-17T08:48:40;6.82;;;2.15;;
67049;SDS011;53955;52.442;13.284;2023-05-17T08:51:10;7.05;;;1.70;;
67049;SDS011;53955;52.442;13.284;2023-05-17T08:53:36;6.38;;;1.38;;
67049;SDS011;53955;52.442;13.284;2023-05-17T08:56:03;5.95;;;1.80;;
67049;SDS011;53955;52.442;13.284;2023-05-17T08:58:32;5.72;;;1.83;;
67049;SDS011;53955;52.442;13.284;2023-05-17T09:01:01;8.80;;;2.33;;
67049;SDS011;53955;52.442;13.284;2023-05-17T09:03:28;7.70;;;2.08;;
67049;SDS011;53955;52.442;13.284;2023-05-17T09:05:57;5.45;;;1.55;;
67049;SDS011;53955;52.442;13.284;2023-05-17T09:08:25;7.15;;;2.25;;
67049;SDS011;53955;52.442;13.284;2023-05-17T09:10:52;6.57;;;2.00;;
67049;SDS011;53955;52.442;13.284;2023-05-17T09:13:19;9.90;;;1.90;;
67049;SDS011;53955;52.442;13.284;2023-05-17T09:15:49;10.15;;;1.90;;
67049;SDS011;53955;52.442;13.284;2023-05-17T09:18:16;8.63;;;1.60;;
67049;SDS011;53955;52.442;13.284;2023-05-17T09:20:46;6.57;;;2.03;;
67049;SDS011;53955;52.442;13.284;2023-05-17T09:23:17;7.00;;;1.85;;
67049;SDS011;53955;52.442;13.284;2023-05-17T09:25:47;11.10;;;2.10;;
67049;SDS011;53955;52.442;13.284;2023-05-17T09:28:15;9.50;;;2.00;;
67049;SDS011;53955;52.442;13.284;2023-05-17T09:30:43;8.65;;;2.13;;
67049;SDS011;53955;52.442;13.284;2023-05-17T09:33:12;8.02;;;1.63;;
67049;SDS011;53955;52.442;13.284;2023-05-17T09:35:39;12.85;;;2.10;;
67049;SDS011;53955;52.442;13.284;2023-05-17T09:38:06;9.82;;;2.30;;
67049;SDS011;53955;52.442;13.284;2023-05-17T09:40:36;7.47;;;1.80;;
67049;SDS011;53955;52.442;13.284;2023-05-17T09:43:05;8.00;;;2.17;;
67049;SDS011;53955;52.442;13.284;2023-05-17T09:45:32;8.70;;;1.65;;
67049;SDS011;53955;52.442;13.284;2023-05-17T09:48:09;7.10;;;1.67;;
67049;SDS011;53955;52.442;13.284;2023-05-17T09:50:41;10.45;;;1.90;;
67049;SDS011;53955;52.442;13.284;2023-05-17T09:53:20;6.72;;;2.05;;
67049;SDS011;53955;52.442;13.284;2023-05-17T09:55:51;5.22;;;1.70;;
67049;SDS011;53955;52.442;13.284;2023-05-17T09:58:20;9.95;;;1.70;;
67049;SDS011;53955;52.442;13.284;2023-05-17T10:00:47;9.10;;;2.47;;
67049;SDS011;53955;52.442;13.284;2023-05-17T10:03:17;8.32;;;2.28;;
67049;SDS011;53955;52.442;13.284;2023-05-17T10:05:44;11.80;;;2.42;;
67049;SDS011;53955;52.442;13.284;2023-05-17T10:08:12;14.50;;;2.05;;
67049;SDS011;53955;52.442;13.284;2023-05-17T10:10:40;9.55;;;2.50;;
67049;SDS011;53955;52.442;13.284;2023-05-17T10:13:08;8.10;;;1.48;;
67049;SDS011;53955;52.442;13.284;2023-05-17T10:15:39;8.88;;;2.00;;
67049;SDS011;53955;52.442;13.284;2023-05-17T10:18:07;5.55;;;1.67;;
67049;SDS011;53955;52.442;13.284;2023-05-17T10:20:34;4.90;;;1.70;;
67049;SDS011;53955;52.442;13.284;2023-05-17T10:23:01;9.57;;;2.00;;
67049;SDS011;53955;52.442;13.284;2023-05-17T10:25:30;7.22;;;1.98;;
67049;SDS011;53955;52.442;13.284;2023-05-17T10:27:57;6.60;;;1.35;;
67049;SDS011;53955;52.442;13.284;2023-05-17T10:30:25;7.38;;;1.92;;
67049;SDS011;53955;52.442;13.284;2023-05-17T10:32:55;8.70;;;1.80;;
67049;SDS011;53955;52.442;13.284;2023-05-17T10:35:21;6.05;;;1.48;;
67049;SDS011;53955;52.442;13.284;2023-05-17T10:37:49;4.63;;;1.50;;
67049;SDS011;53955;52.442;13.284;2023-05-17T10:40:15;12.10;;;1.65;;
67049;SDS011;53955;52.442;13.284;2023-05-17T10:42:45;5.78;;;1.30;;
67049;SDS011;53955;52.442;13.284;2023-05-17T10:45:15;4.28;;;1.40;;
67049;SDS011;53955;52.442;13.284;2023-05-17T10:47:46;7.97;;;1.85;;
67049;SDS011;53955;52.442;13.284;2023-05-17T10:50:20;4.90;;;1.20;;
67049;SDS011;53955;52.442;13.284;2023-05-17T10:52:47;6.35;;;1.60;;
67049;SDS011;53955;52.442;13.284;2023-05-17T10:55:19;4.15;;;1.30;;
67049;SDS011;53955;52.442;13.284;2023-05-17T10:57:56;8.05;;;1.63;;
67049;SDS011;53955;52.442;13.284;2023-05-17T11:00:44;6.97;;;1.70;;
67049;SDS011;53955;52.442;13.284;2023-05-17T11:03:12;6.72;;;1.60;;
67049;SDS011;53955;52.442;13.284;2023-05-17T11:05:42;7.72;;;1.60;;
67049;SDS011;53955;52.442;13.284;2023-05-17T11:08:13;6.55;;;1.88;;
67049;SDS011;53955;52.442;13.284;2023-05-17T11:13:42;5.10;;;1.55;;
67049;SDS011;53955;52.442;13.284;2023-05-17T11:16:19;5.47;;;1.27;;
67049;SDS011;53955;52.442;13.284;2023-05-17T11:18:48;9.38;;;1.67;;
67049;SDS011;53955;52.442;13.284;2023-05-17T11:21:17;8.45;;;1.58;;
67049;SDS011;53955;52.442;13.284;2023-05-17T11:23:44;8.68;;;1.80;;
67049;SDS011;53955;52.442;13.284;2023-05-17T11:26:15;6.05;;;1.80;;
67049;SDS011;53955;52.442;13.284;2023-05-17T11:28:46;4.72;;;1.80;;
67049;SDS011;53955;52.442;13.284;2023-05-17T11:31:12;6.25;;;1.35;;
67049;SDS011;53955;52.442;13.284;2023-05-17T11:33:41;7.10;;;2.05;;
67049;SDS011;53955;52.442;13.284;2023-05-17T11:36:18;7.03;;;1.98;;
67049;SDS011;53955;52.442;13.284;2023-05-17T11:38:49;6.22;;;1.55;;
67049;SDS011;53955;52.442;13.284;2023-05-17T11:41:35;6.28;;;1.60;;
67049;SDS011;53955;52.442;13.284;2023-05-17T11:44:05;7.45;;;1.90;;
67049;SDS011;53955;52.442;13.284;2023-05-17T11:46:32;9.38;;;1.98;;
67049;SDS011;53955;52.442;13.284;2023-05-17T11:48:59;6.10;;;1.88;;
67049;SDS011;53955;52.442;13.284;2023-05-17T11:51:28;10.20;;;1.95;;
67049;SDS011;53955;52.442;13.284;2023-05-17T11:53:56;8.48;;;1.70;;
67049;SDS011;53955;52.442;13.284;2023-05-17T11:56:27;11.75;;;2.38;;
67049;SDS011;53955;52.442;13.284;2023-05-17T11:58:58;9.32;;;1.95;;
67049;SDS011;53955;52.442;13.284;2023-05-17T12:01:25;5.13;;;1.48;;
67049;SDS011;53955;52.442;13.284;2023-05-17T12:03:54;6.13;;;1.58;;
67049;SDS011;53955;52.442;13.284;2023-05-17T12:06:21;5.35;;;1.65;;
67049;SDS011;53955;52.442;13.284;2023-05-17T12:08:50;6.88;;;1.60;;
67049;SDS011;53955;52.442;13.284;2023-05-17T12:11:17;6.97;;;1.75;;
67049;SDS011;53955;52.442;13.284;2023-05-17T12:13:43;7.85;;;2.20;;
67049;SDS011;53955;52.442;13.284;2023-05-17T12:16:13;5.55;;;2.08;;
67049;SDS011;53955;52.442;13.284;2023-05-17T12:18:40;5.15;;;1.60;;
67049;SDS011;53955;52.442;13.284;2023-05-17T12:21:13;10.40;;;1.70;;
67049;SDS011;53955;52.442;13.284;2023-05-17T12:23:41;5.20;;;1.55;;
67049;SDS011;53955;52.442;13.284;2023-05-17T12:26:10;5.05;;;1.17;;
67049;SDS011;53955;52.442;13.284;2023-05-17T12:28:38;7.03;;;1.80;;
67049;SDS011;53955;52.442;13.284;2023-05-17T12:31:07;8.27;;;1.75;;
67049;SDS011;53955;52.442;13.284;2023-05-17T12:33:36;7.95;;;1.92;;
67049;SDS011;53955;52.442;13.284;2023-05-17T12:36:05;10.45;;;2.05;;
67049;SDS011;53955;52.442;13.284;2023-05-17T12:38:33;3.42;;;1.50;;
67049;SDS011;53955;52.442;13.284;2023-05-17T12:41:01;8.35;;;1.75;;
67049;SDS011;53955;52.442;13.284;2023-05-17T12:43:30;6.05;;;1.50;;
67049;SDS011;53955;52.442;13.284;2023-05-17T12:46:01;8.32;;;2.08;;
67049;SDS011;53955;52.442;13.284;2023-05-17T12:48:31;11.52;;;2.00;;
67049;SDS011;53955;52.442;13.284;2023-05-17T12:51:04;7.88;;;1.63;;
67049;SDS011;53955;52.442;13.284;2023-05-17T12:53:33;5.18;;;1.58;;
67049;SDS011;53955;52.442;13.284;2023-05-17T12:56:00;6.05;;;1.52;;
67049;SDS011;53955;52.442;13.284;2023-05-17T12:58:27;13.90;;;1.90;;
67049;SDS011;53955;52.442;13.284;2023-05-17T13:01:01;5.50;;;1.42;;
67049;SDS011;53955;52.442;13.284;2023-05-17T13:03:30;10.45;;;1.63;;
67049;SDS011;53955;52.442;13.284;2023-05-17T13:06:02;7.95;;;1.60;;
67049;SDS011;53955;52.442;13.284;2023-05-17T13:08:30;6.30;;;1.63;;
67049;SDS011;53955;52.442;13.284;2023-05-17T13:11:10;4.18;;;1.77;;
67049;SDS011;53955;52.442;13.284;2023-05-17T13:13:38;8.32;;;1.42;;
67049;SDS011;53955;52.442;13.284;2023-05-17T13:16:07;3.97;;;1.30;;
67049;SDS011;53955;52.442;13.284;2023-05-17T13:18:46;6.05;;;1.90;;
67049;SDS011;53955;52.442;13.284;2023-05-17T13:21:13;5.15;;;1.60;;
67049;SDS011;53955;52.442;13.284;2023-05-17T13:23:41;8.00;;;2.22;;
67049;SDS011;53955;52.442;13.284;2023-05-17T13:26:08;8.88;;;1.67;;
67049;SDS011;53955;52.442;13.284;2023-05-17T13:28:36;6.97;;;1.83;;
67049;SDS011;53955;52.442;13.284;2023-05-17T13:31:03;4.00;;;1.40;;
67049;SDS011;53955;52.442;13.284;2023-05-17T13:33:31;7.82;;;1.80;;
67049;SDS011;53955;52.442;13.284;2023-05-17T13:35:57;4.35;;;1.65;;
67049;SDS011;53955;52.442;13.284;2023-05-17T13:38:24;7.68;;;1.70;;
67049;SDS011;53955;52.442;13.284;2023-05-17T13:40:51;5.03;;;1.38;;
67049;SDS011;53955;52.442;13.284;2023-05-17T13:43:17;10.15;;;1.67;;
67049;SDS011;53955;52.442;13.284;2023-05-17T13:45:44;5.18;;;1.50;;
67049;SDS011;53955;52.442;13.284;2023-05-17T13:48:14;6.93;;;1.70;;
67049;SDS011;53955;52.442;13.284;2023-05-17T13:50:42;8.68;;;1.27;;
67049;SDS011;53955;52.442;13.284;2023-05-17T13:53:09;4.28;;;1.33;;
67049;SDS011;53955;52.442;13.284;2023-05-17T13:55:36;4.75;;;1.60;;
67049;SDS011;53955;52.442;13.284;2023-05-17T13:58:03;10.10;;;1.88;;
67049;SDS011;53955;52.442;13.284;2023-05-17T14:00:30;6.13;;;1.50;;
67049;SDS011;53955;52.442;13.284;2023-05-17T14:02:56;4.55;;;1.50;;
67049;SDS011;53955;52.442;13.284;2023-05-17T14:05:23;10.77;;;2.00;;
67049;SDS011;53955;52.442;13.284;2023-05-17T14:07:54;7.25;;;1.75;;
67049;SDS011;53955;52.442;13.284;2023-05-17T14:10:21;4.28;;;1.40;;
67049;SDS011;53955;52.442;13.284;2023-05-17T14:12:47;4.93;;;1.40;;
67049;SDS011;53955;52.442;13.284;2023-05-17T14:15:14;6.55;;;1.80;;
67049;SDS011;53955;52.442;13.284;2023-05-17T14:17:40;4.40;;;1.70;;
67049;SDS011;53955;52.442;13.284;2023-05-17T14:20:07;7.05;;;1.73;;
67049;SDS011;53955;52.442;13.284;2023-05-17T14:22:34;6.45;;;1.77;;
67049;SDS011;53955;52.442;13.284;2023-05-17T14:25:03;3.88;;;1.60;;
67049;SDS011;53955;52.442;13.284;2023-05-17T14:27:30;9.80;;;1.85;;
67049;SDS011;53955;52.442;13.284;2023-05-17T14:29:57;7.18;;;1.70;;
67049;SDS011;53955;52.442;13.284;2023-05-17T14:32:25;7.70;;;1.60;;
67049;SDS011;53955;52.442;13.284;2023-05-17T14:34:51;4.57;;;1.42;;
67049;SDS011;53955;52.442;13.284;2023-05-17T14:37:18;7.18;;;1.85;;
67049;SDS011;53955;52.442;13.284;2023-05-17T14:39:45;7.85;;;1.27;;
67049;SDS011;53955;52.442;13.284;2023-05-17T14:42:14;5.93;;;1.70;;
67049;SDS011;53955;52.442;13.284;2023-05-17T14:44:41;3.97;;;1.50;;
67049;SDS011;53955;52.442;13.284;2023-05-17T14:47:09;6.00;;;1.70;;
67049;SDS011;53955;52.442;13.284;2023-05-17T14:49:35;6.75;;;1.95;;
67049;SDS011;53955;52.442;13.284;2023-05-17T14:52:02;4.97;;;1.52;;
67049;SDS011;53955;52.442;13.284;2023-05-17T14:54:29;7.38;;;1.80;;